sensor_id;sensor_type;location;lat;lon;timestamp;pressure;altitude;pressure_sealevel;temperature;humidity
74834;BME280;63361;52.384;20.930;2023-11-21T00:00:49;99998.69;;;-1.72;100.00
74834;BME280;63361;52.384;20.930;2023-11-21T00:03:14;100000.94;;;-1.69;100.00
74834;BME280;63361;52.384;20.930;2023-11-21T00:05:44;100008.41;;;-1.59;100.00
74834;BME280;63361;52.384;20.930;2023-11-21T00:08:09;100002.78;;;-1.69;100.00
74834;BME280;63361;52.384;20.930;2023-11-21T00:10:35;99997.63;;;-1.64;100.00
74834;BME280;63361;52.384;20.930;2023-11-21T00:13:03;100024.84;;;-1.44;100.00
74834;BME280;63361;52.384;20.930;2023-11-21T00:15:28;100019.56;;;-1.51;100.00
74834;BME280;63361;52.384;20.930;2023-11-21T00:17:53;100029.78;;;-1.61;100.00
74834;BME280;63361;52.384;20.930;2023-11-21T00:20:19;100031.41;;;-1.53;100.00
74834;BME280;63361;52.384;20.930;2023-11-21T00:22:44;100015.94;;;-1.63;100.00
74834;BME280;63361;52.384;20.930;2023-11-21T00:25:10;100016.00;;;-1.69;100.00
74834;BME280;63361;52.384;20.930;2023-11-21T00:27:36;100023.50;;;-1.66;100.00
74834;BME280;63361;52.384;20.930;2023-11-21T00:30:02;100026.94;;;-1.59;100.00
74834;BME280;63361;52.384;20.930;2023-11-21T00:32:29;100030.03;;;-1.75;100.00
74834;BME280;63361;52.384;20.930;2023-11-21T00:34:54;100026.56;;;-1.69;100.00
74834;BME280;63361;52.384;20.930;2023-11-21T00:37:20;100039.53;;;-1.55;100.00
74834;BME280;63361;52.384;20.930;2023-11-21T00:39:45;100031.00;;;-1.63;100.00
74834;BME280;63361;52.384;20.930;2023-11-21T00:42:10;100038.94;;;-1.63;100.00
74834;BME280;63361;52.384;20.930;2023-11-21T00:44:38;100035.28;;;-1.62;100.00
74834;BME280;63361;52.384;20.930;2023-11-21T00:47:04;100034.69;;;-1.64;100.00
74834;BME280;63361;52.384;20.930;2023-11-21T00:49:29;100040.63;;;-1.69;100.00
74834;BME280;63361;52.384;20.930;2023-11-21T00:51:55;100022.31;;;-1.70;100.00
74834;BME280;63361;52.384;20.930;2023-11-21T00:54:20;100031.66;;;-1.74;100.00
74834;BME280;63361;52.384;20.930;2023-11-21T00:56:45;100029.59;;;-1.66;100.00
74834;BME280;63361;52.384;20.930;2023-11-21T00:59:12;100030.28;;;-1.84;100.00
74834;BME280;63361;52.384;20.930;2023-11-21T01:01:37;100033.09;;;-1.72;100.00
74834;BME280;63361;52.384;20.930;2023-11-21T01:04:03;100036.59;;;-1.85;100.00
74834;BME280;63361;52.384;20.930;2023-11-21T01:06:28;100036.75;;;-1.73;100.00
74834;BME280;63361;52.384;20.930;2023-11-21T01:08:55;100037.38;;;-1.78;100.00
74834;BME280;63361;52.384;20.930;2023-11-21T01:11:20;100048.00;;;-1.84;100.00
74834;BME280;63361;52.384;20.930;2023-11-21T01:13:46;100046.75;;;-1.82;100.00
74834;BME280;63361;52.384;20.930;2023-11-21T01:16:11;100049.78;;;-1.71;100.00
74834;BME280;63361;52.384;20.930;2023-11-21T01:18:36;100055.03;;;-1.65;100.00
74834;BME280;63361;52.384;20.930;2023-11-21T01:21:02;100048.50;;;-1.62;100.00
74834;BME280;63361;52.384;20.930;2023-11-21T01:23:27;100042.22;;;-1.61;100.00
74834;BME280;63361;52.384;20.930;2023-11-21T01:25:55;100055.84;;;-1.64;100.00
74834;BME280;63361;52.384;20.930;2023-11-21T01:28:20;100048.56;;;-1.69;100.00
74834;BME280;63361;52.384;20.930;2023-11-21T01:30:46;100059.59;;;-1.85;100.00
74834;BME280;63361;52.384;20.930;2023-11-21T01:33:11;100066.06;;;-1.74;100.00
74834;BME280;63361;52.384;20.930;2023-11-21T01:35:37;100056.91;;;-1.79;100.00
74834;BME280;63361;52.384;20.930;2023-11-21T01:38:02;100060.97;;;-1.83;100.00
74834;BME280;63361;52.384;20.930;2023-11-21T01:40:29;100064.19;;;-1.61;100.00
74834;BME280;63361;52.384;20.930;2023-11-21T01:42:55;100060.09;;;-1.57;100.00
74834;BME280;63361;52.384;20.930;2023-11-21T01:45:21;100068.50;;;-1.80;100.00
74834;BME280;63361;52.384;20.930;2023-11-21T01:47:46;100080.31;;;-1.82;100.00
74834;BME280;63361;52.384;20.930;2023-11-21T01:50:16;100077.28;;;-1.86;100.00
74834;BME280;63361;52.384;20.930;2023-11-21T01:52:44;100071.16;;;-1.73;100.00
74834;BME280;63361;52.384;20.930;2023-11-21T01:55:10;100071.16;;;-1.73;100.00
74834;BME280;63361;52.384;20.930;2023-11-21T01:57:36;100064.22;;;-1.81;100.00
74834;BME280;63361;52.384;20.930;2023-11-21T02:00:04;100062.84;;;-1.90;100.00
74834;BME280;63361;52.384;20.930;2023-11-21T02:02:43;100067.13;;;-1.89;100.00
74834;BME280;63361;52.384;20.930;2023-11-21T02:05:10;100065.28;;;-1.95;100.00
74834;BME280;63361;52.384;20.930;2023-11-21T02:07:35;100072.22;;;-2.07;100.00
74834;BME280;63361;52.384;20.930;2023-11-21T02:10:01;100060.22;;;-2.09;100.00
74834;BME280;63361;52.384;20.930;2023-11-21T02:12:26;100069.78;;;-2.02;100.00
74834;BME280;63361;52.384;20.930;2023-11-21T02:14:52;100081.56;;;-1.91;100.00
74834;BME280;63361;52.384;20.930;2023-11-21T02:17:18;100071.19;;;-1.86;100.00
74834;BME280;63361;52.384;20.930;2023-11-21T02:19:43;100064.88;;;-1.92;100.00
74834;BME280;63361;52.384;20.930;2023-11-21T02:22:10;100083.81;;;-1.95;100.00
74834;BME280;63361;52.384;20.930;2023-11-21T02:24:37;100088.28;;;-1.95;100.00
74834;BME280;63361;52.384;20.930;2023-11-21T02:27:02;100076.06;;;-1.96;100.00
74834;BME280;63361;52.384;20.930;2023-11-21T02:29:27;100081.94;;;-1.81;100.00
74834;BME280;63361;52.384;20.930;2023-11-21T02:31:54;100094.56;;;-1.77;100.00
74834;BME280;63361;52.384;20.930;2023-11-21T02:34:21;100074.28;;;-2.02;100.00
74834;BME280;63361;52.384;20.930;2023-11-21T02:36:46;100088.31;;;-2.02;100.00
74834;BME280;63361;52.384;20.930;2023-11-21T02:39:14;100084.84;;;-2.02;100.00
74834;BME280;63361;52.384;20.930;2023-11-21T02:41:40;100089.50;;;-1.98;100.00
74834;BME280;63361;52.384;20.930;2023-11-21T02:44:06;100086.06;;;-2.05;100.00
74834;BME280;63361;52.384;20.930;2023-11-21T02:46:33;100105.59;;;-1.99;100.00
74834;BME280;63361;52.384;20.930;2023-11-21T02:49:00;100092.53;;;-1.94;100.00
74834;BME280;63361;52.384;20.930;2023-11-21T02:51:25;100108.22;;;-1.86;100.00
74834;BME280;63361;52.384;20.930;2023-11-21T02:53:50;100091.13;;;-1.97;100.00
74834;BME280;63361;52.384;20.930;2023-11-21T02:56:16;100095.22;;;-2.01;100.00
74834;BME280;63361;52.384;20.930;2023-11-21T02:58:42;100107.00;;;-2.10;100.00
74834;BME280;63361;52.384;20.930;2023-11-21T03:01:09;100113.13;;;-2.16;100.00
74834;BME280;63361;52.384;20.930;2023-11-21T03:03:34;100096.44;;;-2.10;100.00
74834;BME280;63361;52.384;20.930;2023-11-21T03:06:00;100102.94;;;-1.99;100.00
74834;BME280;63361;52.384;20.930;2023-11-21T03:08:25;100104.13;;;-1.95;100.00
74834;BME280;63361;52.384;20.930;2023-11-21T03:10:50;100095.41;;;-2.09;100.00
74834;BME280;63361;52.384;20.930;2023-11-21T03:13:16;100107.81;;;-1.96;100.00
74834;BME280;63361;52.384;20.930;2023-11-21T03:15:41;100107.19;;;-1.98;100.00
74834;BME280;63361;52.384;20.930;2023-11-21T03:18:07;100117.56;;;-1.97;100.00
74834;BME280;63361;52.384;20.930;2023-11-21T03:20:33;100115.72;;;-1.83;100.00
74834;BME280;63361;52.384;20.930;2023-11-21T03:22:59;100114.13;;;-1.84;100.00
74834;BME280;63361;52.384;20.930;2023-11-21T03:25:25;100122.84;;;-1.90;100.00
74834;BME280;63361;52.384;20.930;2023-11-21T03:27:50;100117.78;;;-1.98;100.00
74834;BME280;63361;52.384;20.930;2023-11-21T03:30:15;100108.22;;;-1.93;100.00
74834;BME280;63361;52.384;20.930;2023-11-21T03:36:05;100112.69;;;-1.93;100.00
74834;BME280;63361;52.384;20.930;2023-11-21T03:38:30;100110.66;;;-1.98;100.00
74834;BME280;63361;52.384;20.930;2023-11-21T03:40:56;100118.00;;;-2.00;100.00
74834;BME280;63361;52.384;20.930;2023-11-21T03:43:21;100120.22;;;-1.97;100.00
74834;BME280;63361;52.384;20.930;2023-11-21T03:45:46;100124.50;;;-2.09;100.00
74834;BME280;63361;52.384;20.930;2023-11-21T03:48:12;100134.47;;;-2.11;100.00
74834;BME280;63361;52.384;20.930;2023-11-21T03:50:38;100120.84;;;-2.28;100.00
74834;BME280;63361;52.384;20.930;2023-11-21T03:53:04;100142.00;;;-2.21;100.00
74834;BME280;63361;52.384;20.930;2023-11-21T03:55:29;100132.84;;;-2.19;100.00
74834;BME280;63361;52.384;20.930;2023-11-21T03:57:56;100121.44;;;-2.39;100.00
74834;BME280;63361;52.384;20.930;2023-11-21T04:00:22;100120.25;;;-2.36;100.00
74834;BME280;63361;52.384;20.930;2023-11-21T04:02:48;100134.47;;;-2.37;100.00
74834;BME280;63361;52.384;20.930;2023-11-21T04:05:13;100129.56;;;-2.40;100.00
74834;BME280;63361;52.384;20.930;2023-11-21T04:07:39;100139.97;;;-2.19;100.00
74834;BME280;63361;52.384;20.930;2023-11-21T04:10:07;100152.94;;;-1.78;100.00
74834;BME280;63361;52.384;20.930;2023-11-21T04:12:37;100136.47;;;-1.80;100.00
74834;BME280;63361;52.384;20.930;2023-11-21T04:15:03;100148.28;;;-1.83;100.00
74834;BME280;63361;52.384;20.930;2023-11-21T04:17:28;100149.72;;;-1.93;100.00
74834;BME280;63361;52.384;20.930;2023-11-21T04:19:54;100148.28;;;-2.22;100.00
74834;BME280;63361;52.384;20.930;2023-11-21T04:22:19;100165.81;;;-2.15;100.00
74834;BME280;63361;52.384;20.930;2023-11-21T04:24:44;100164.59;;;-1.99;100.00
74834;BME280;63361;52.384;20.930;2023-11-21T04:27:10;100170.25;;;-1.95;100.00
74834;BME280;63361;52.384;20.930;2023-11-21T04:29:35;100187.94;;;-1.83;100.00
74834;BME280;63361;52.384;20.930;2023-11-21T04:32:01;100164.38;;;-2.04;100.00
74834;BME280;63361;52.384;20.930;2023-11-21T04:34:28;100170.06;;;-2.00;100.00
74834;BME280;63361;52.384;20.930;2023-11-21T04:36:55;100185.72;;;-2.12;100.00
74834;BME280;63361;52.384;20.930;2023-11-21T04:39:21;100170.44;;;-2.43;100.00
74834;BME280;63361;52.384;20.930;2023-11-21T04:41:46;100178.16;;;-2.28;100.00
74834;BME280;63361;52.384;20.930;2023-11-21T04:44:11;100184.69;;;-2.37;100.00
74834;BME280;63361;52.384;20.930;2023-11-21T04:46:37;100186.94;;;-2.21;100.00
74834;BME280;63361;52.384;20.930;2023-11-21T04:49:02;100184.91;;;-2.32;100.00
74834;BME280;63361;52.384;20.930;2023-11-21T04:51:28;100167.81;;;-2.36;100.00
74834;BME280;63361;52.384;20.930;2023-11-21T04:53:53;100178.59;;;-2.18;100.00
74834;BME280;63361;52.384;20.930;2023-11-21T04:56:18;100180.44;;;-2.19;100.00
74834;BME280;63361;52.384;20.930;2023-11-21T04:58:44;100180.03;;;-2.16;100.00
74834;BME280;63361;52.384;20.930;2023-11-21T05:01:09;100183.47;;;-2.08;100.00
74834;BME280;63361;52.384;20.930;2023-11-21T05:03:34;100198.13;;;-2.19;100.00
74834;BME280;63361;52.384;20.930;2023-11-21T05:06:00;100171.06;;;-2.28;100.00
74834;BME280;63361;52.384;20.930;2023-11-21T05:08:25;100202.41;;;-2.18;100.00
74834;BME280;63361;52.384;20.930;2023-11-21T05:10:51;100185.28;;;-2.35;100.00
74834;BME280;63361;52.384;20.930;2023-11-21T05:13:17;100196.91;;;-2.10;100.00
74834;BME280;63361;52.384;20.930;2023-11-21T05:15:44;100199.72;;;-2.25;100.00
74834;BME280;63361;52.384;20.930;2023-11-21T05:18:09;100203.22;;;-2.18;100.00
74834;BME280;63361;52.384;20.930;2023-11-21T05:20:35;100192.44;;;-2.29;100.00
74834;BME280;63361;52.384;20.930;2023-11-21T05:23:01;100187.34;;;-2.31;100.00
74834;BME280;63361;52.384;20.930;2023-11-21T05:25:26;100192.00;;;-2.26;100.00
74834;BME280;63361;52.384;20.930;2023-11-21T05:27:52;100215.00;;;-2.20;100.00
74834;BME280;63361;52.384;20.930;2023-11-21T05:30:18;100216.41;;;-2.24;100.00
74834;BME280;63361;52.384;20.930;2023-11-21T05:32:44;100211.72;;;-2.35;100.00
74834;BME280;63361;52.384;20.930;2023-11-21T05:35:10;100224.94;;;-2.35;100.00
74834;BME280;63361;52.384;20.930;2023-11-21T05:37:40;100213.16;;;-2.33;100.00
74834;BME280;63361;52.384;20.930;2023-11-21T05:40:07;100224.31;;;-2.37;100.00
74834;BME280;63361;52.384;20.930;2023-11-21T05:42:34;100222.50;;;-2.37;100.00
74834;BME280;63361;52.384;20.930;2023-11-21T05:44:59;100217.22;;;-2.24;100.00
74834;BME280;63361;52.384;20.930;2023-11-21T05:47:39;100242.47;;;-2.15;100.00
74834;BME280;63361;52.384;20.930;2023-11-21T05:50:06;100249.56;;;-2.22;100.00
74834;BME280;63361;52.384;20.930;2023-11-21T05:52:34;100235.09;;;-2.39;100.00
74834;BME280;63361;52.384;20.930;2023-11-21T05:55:00;100240.00;;;-2.29;100.00
74834;BME280;63361;52.384;20.930;2023-11-21T05:57:25;100246.69;;;-2.27;100.00
74834;BME280;63361;52.384;20.930;2023-11-21T05:59:50;100252.81;;;-2.20;100.00
74834;BME280;63361;52.384;20.930;2023-11-21T06:02:16;100244.31;;;-2.15;100.00
74834;BME280;63361;52.384;20.930;2023-11-21T06:04:42;100245.88;;;-2.27;100.00
74834;BME280;63361;52.384;20.930;2023-11-21T06:07:07;100235.09;;;-2.26;100.00
74834;BME280;63361;52.384;20.930;2023-11-21T06:09:32;100254.44;;;-2.32;100.00
74834;BME280;63361;52.384;20.930;2023-11-21T06:11:58;100265.44;;;-2.08;100.00
74834;BME280;63361;52.384;20.930;2023-11-21T06:14:23;100253.44;;;-2.18;100.00
74834;BME280;63361;52.384;20.930;2023-11-21T06:16:49;100261.78;;;-2.21;100.00
74834;BME280;63361;52.384;20.930;2023-11-21T06:19:16;100264.22;;;-2.19;100.00
74834;BME280;63361;52.384;20.930;2023-11-21T06:21:45;100275.19;;;-2.22;100.00
74834;BME280;63361;52.384;20.930;2023-11-21T06:24:10;100278.25;;;-2.12;100.00
74834;BME280;63361;52.384;20.930;2023-11-21T06:26:36;100267.88;;;-2.20;100.00
74834;BME280;63361;52.384;20.930;2023-11-21T06:29:01;100270.50;;;-2.20;100.00
74834;BME280;63361;52.384;20.930;2023-11-21T06:31:29;100284.78;;;-2.15;100.00
74834;BME280;63361;52.384;20.930;2023-11-21T06:33:54;100273.47;;;-2.43;100.00
74834;BME280;63361;52.384;20.930;2023-11-21T06:36:20;100290.00;;;-2.28;100.00
74834;BME280;63361;52.384;20.930;2023-11-21T06:38:45;100290.88;;;-2.14;100.00
74834;BME280;63361;52.384;20.930;2023-11-21T06:41:11;100273.78;;;-2.12;100.00
74834;BME280;63361;52.384;20.930;2023-11-21T06:43:39;100284.78;;;-2.08;100.00
74834;BME280;63361;52.384;20.930;2023-11-21T06:46:04;100277.03;;;-2.09;100.00
74834;BME280;63361;52.384;20.930;2023-11-21T06:48:30;100290.66;;;-2.13;100.00
74834;BME280;63361;52.384;20.930;2023-11-21T06:50:56;100302.25;;;-2.14;100.00
74834;BME280;63361;52.384;20.930;2023-11-21T06:53:21;100298.59;;;-2.06;100.00
74834;BME280;63361;52.384;20.930;2023-11-21T06:55:47;100290.44;;;-2.11;100.00
74834;BME280;63361;52.384;20.930;2023-11-21T06:58:12;100306.31;;;-2.18;100.00
74834;BME280;63361;52.384;20.930;2023-11-21T07:00:39;100313.25;;;-1.97;100.00
74834;BME280;63361;52.384;20.930;2023-11-21T07:03:05;100312.06;;;-1.94;100.00
74834;BME280;63361;52.384;20.930;2023-11-21T07:05:30;100312.66;;;-1.92;100.00
74834;BME280;63361;52.384;20.930;2023-11-21T07:07:56;100311.25;;;-2.01;100.00
74834;BME280;63361;52.384;20.930;2023-11-21T07:10:21;100296.53;;;-2.30;100.00
74834;BME280;63361;52.384;20.930;2023-11-21T07:12:47;100328.28;;;-2.17;100.00
74834;BME280;63361;52.384;20.930;2023-11-21T07:15:12;100314.25;;;-2.18;100.00
74834;BME280;63361;52.384;20.930;2023-11-21T07:17:38;100339.50;;;-1.95;100.00
74834;BME280;63361;52.384;20.930;2023-11-21T07:20:03;100329.56;;;-1.93;100.00
74834;BME280;63361;52.384;20.930;2023-11-21T07:22:29;100321.41;;;-1.92;100.00
74834;BME280;63361;52.384;20.930;2023-11-21T07:24:55;100336.88;;;-1.82;100.00
74834;BME280;63361;52.384;20.930;2023-11-21T07:27:22;100333.44;;;-1.83;100.00
74834;BME280;63361;52.384;20.930;2023-11-21T07:29:47;100325.31;;;-1.74;100.00
74834;BME280;63361;52.384;20.930;2023-11-21T07:32:13;100329.19;;;-1.77;100.00
74834;BME280;63361;52.384;20.930;2023-11-21T07:34:40;100338.69;;;-1.96;100.00
74834;BME280;63361;52.384;20.930;2023-11-21T07:37:07;100325.31;;;-1.74;100.00
74834;BME280;63361;52.384;20.930;2023-11-21T07:39:34;100344.06;;;-1.43;100.00
74834;BME280;63361;52.384;20.930;2023-11-21T07:42:00;100334.50;;;-1.37;100.00
74834;BME280;63361;52.384;20.930;2023-11-21T07:44:25;100332.03;;;-1.52;100.00
74834;BME280;63361;52.384;20.930;2023-11-21T07:46:51;100347.94;;;-1.59;100.00
74834;BME280;63361;52.384;20.930;2023-11-21T07:49:16;100342.44;;;-1.70;100.00
74834;BME280;63361;52.384;20.930;2023-11-21T07:51:45;100344.06;;;-1.69;100.00
74834;BME280;63361;52.384;20.930;2023-11-21T07:54:11;100355.88;;;-1.59;100.00
74834;BME280;63361;52.384;20.930;2023-11-21T07:56:36;100342.81;;;-1.67;100.00
74834;BME280;63361;52.384;20.930;2023-11-21T07:59:02;100359.94;;;-1.69;100.00
74834;BME280;63361;52.384;20.930;2023-11-21T08:01:27;100362.56;;;-1.63;100.00
74834;BME280;63361;52.384;20.930;2023-11-21T08:03:54;100348.75;;;-1.71;100.00
74834;BME280;63361;52.384;20.930;2023-11-21T08:06:22;100328.38;;;-1.84;100.00
74834;BME280;63361;52.384;20.930;2023-11-21T08:08:48;100362.56;;;-1.63;100.00
74834;BME280;63361;52.384;20.930;2023-11-21T08:11:14;100354.66;;;-1.69;100.00
74834;BME280;63361;52.384;20.930;2023-11-21T08:13:39;100343.25;;;-1.70;100.00
74834;BME280;63361;52.384;20.930;2023-11-21T08:16:05;100359.34;;;-1.58;100.00
74834;BME280;63361;52.384;20.930;2023-11-21T08:18:32;100350.56;;;-1.59;100.00
74834;BME280;63361;52.384;20.930;2023-11-21T08:20:59;100350.38;;;-1.51;100.00
74834;BME280;63361;52.384;20.930;2023-11-21T08:23:25;100345.47;;;-1.67;100.00
74834;BME280;63361;52.384;20.930;2023-11-21T08:25:52;100366.28;;;-1.44;100.00
74834;BME280;63361;52.384;20.930;2023-11-21T08:28:18;100355.66;;;-1.51;100.00
74834;BME280;63361;52.384;20.930;2023-11-21T08:30:43;100347.91;;;-1.65;100.00
74834;BME280;63361;52.384;20.930;2023-11-21T08:33:09;100368.91;;;-1.37;100.00
74834;BME280;63361;52.384;20.930;2023-11-21T08:35:36;100379.72;;;-1.26;100.00
74834;BME280;63361;52.384;20.930;2023-11-21T08:38:02;100385.03;;;-1.26;100.00
74834;BME280;63361;52.384;20.930;2023-11-21T08:40:28;100391.53;;;-1.28;100.00
74834;BME280;63361;52.384;20.930;2023-11-21T08:42:54;100387.66;;;-1.26;100.00
74834;BME280;63361;52.384;20.930;2023-11-21T08:45:21;100393.75;;;-1.06;100.00
74834;BME280;63361;52.384;20.930;2023-11-21T08:47:47;100379.31;;;-1.29;100.00
74834;BME280;63361;52.384;20.930;2023-11-21T08:50:13;100380.31;;;-1.30;100.00
74834;BME280;63361;52.384;20.930;2023-11-21T08:52:39;100395.00;;;-1.15;100.00
74834;BME280;63361;52.384;20.930;2023-11-21T08:55:06;100384.19;;;-1.07;100.00
74834;BME280;63361;52.384;20.930;2023-11-21T08:57:35;100392.56;;;-1.16;100.00
74834;BME280;63361;52.384;20.930;2023-11-21T09:00:02;100389.28;;;-0.98;100.00
74834;BME280;63361;52.384;20.930;2023-11-21T09:02:28;100411.69;;;-0.88;100.00
74834;BME280;63361;52.384;20.930;2023-11-21T09:04:53;100402.13;;;-1.02;100.00
74834;BME280;63361;52.384;20.930;2023-11-21T09:07:19;100392.56;;;-0.96;100.00
74834;BME280;63361;52.384;20.930;2023-11-21T09:09:46;100408.44;;;-0.90;100.00
74834;BME280;63361;52.384;20.930;2023-11-21T09:12:12;100412.31;;;-0.86;100.00
74834;BME280;63361;52.384;20.930;2023-11-21T09:14:38;100408.84;;;-0.99;100.00
74834;BME280;63361;52.384;20.930;2023-11-21T09:17:04;100417.41;;;-1.04;100.00
74834;BME280;63361;52.384;20.930;2023-11-21T09:19:38;100409.66;;;-1.25;100.00
74834;BME280;63361;52.384;20.930;2023-11-21T09:22:04;100413.34;;;-1.13;100.00
74834;BME280;63361;52.384;20.930;2023-11-21T09:24:33;100423.50;;;-1.17;100.00
74834;BME280;63361;52.384;20.930;2023-11-21T09:26:59;100413.91;;;-1.37;100.00
74834;BME280;63361;52.384;20.930;2023-11-21T09:29:28;100418.63;;;-1.20;100.00
74834;BME280;63361;52.384;20.930;2023-11-21T09:31:54;100411.09;;;-1.29;100.00
74834;BME280;63361;52.384;20.930;2023-11-21T09:34:20;100418.22;;;-1.23;100.00
74834;BME280;63361;52.384;20.930;2023-11-21T09:36:46;100419.84;;;-1.16;100.00
74834;BME280;63361;52.384;20.930;2023-11-21T09:39:12;100418.03;;;-0.95;100.00
74834;BME280;63361;52.384;20.930;2023-11-21T09:41:51;100405.19;;;-0.92;100.00
74834;BME280;63361;52.384;20.930;2023-11-21T09:44:35;100419.03;;;-0.90;100.00
74834;BME280;63361;52.384;20.930;2023-11-21T09:47:02;100411.50;;;-1.06;100.00
74834;BME280;63361;52.384;20.930;2023-11-21T09:49:28;100414.13;;;-1.06;100.00
74834;BME280;63361;52.384;20.930;2023-11-21T09:51:55;100413.31;;;-1.07;100.00
74834;BME280;63361;52.384;20.930;2023-11-21T09:54:23;100419.84;;;-1.16;100.00
74834;BME280;63361;52.384;20.930;2023-11-21T09:56:50;100420.44;;;-1.20;100.00
74834;BME280;63361;52.384;20.930;2023-11-21T09:59:15;100430.44;;;-1.22;100.00
74834;BME280;63361;52.384;20.930;2023-11-21T10:01:42;100438.19;;;-1.08;100.00
74834;BME280;63361;52.384;20.930;2023-11-21T10:04:08;100416.78;;;-1.26;100.00
74834;BME280;63361;52.384;20.930;2023-11-21T10:06:41;100431.84;;;-1.20;100.00
74834;BME280;63361;52.384;20.930;2023-11-21T10:09:12;100419.44;;;-1.39;100.00
74834;BME280;63361;52.384;20.930;2023-11-21T10:11:42;100426.94;;;-1.36;100.00
74834;BME280;63361;52.384;20.930;2023-11-21T10:14:10;100450.19;;;-1.25;100.00
74834;BME280;63361;52.384;20.930;2023-11-21T10:16:36;100436.75;;;-1.23;100.00
74834;BME280;63361;52.384;20.930;2023-11-21T10:19:04;100442.25;;;-1.25;100.00
74834;BME280;63361;52.384;20.930;2023-11-21T10:21:32;100443.06;;;-1.24;100.00
74834;BME280;63361;52.384;20.930;2023-11-21T10:23:58;100432.47;;;-1.31;100.00
74834;BME280;63361;52.384;20.930;2023-11-21T10:26:26;100427.59;;;-1.27;100.00
74834;BME280;63361;52.384;20.930;2023-11-21T10:28:58;100433.47;;;-1.32;100.00
74834;BME280;63361;52.384;20.930;2023-11-21T10:31:30;100434.50;;;-1.33;100.00
74834;BME280;63361;52.384;20.930;2023-11-21T10:34:17;100434.66;;;-1.48;100.00
74834;BME280;63361;52.384;20.930;2023-11-21T10:36:44;100459.53;;;-1.35;100.00
74834;BME280;63361;52.384;20.930;2023-11-21T10:39:14;100450.41;;;-1.26;100.00
74834;BME280;63361;52.384;20.930;2023-11-21T10:41:44;100454.09;;;-1.01;100.00
74834;BME280;63361;52.384;20.930;2023-11-21T10:44:10;100465.09;;;-0.97;100.00
74834;BME280;63361;52.384;20.930;2023-11-21T10:46:36;100447.75;;;-1.13;100.00
74834;BME280;63361;52.384;20.930;2023-11-21T10:49:03;100446.34;;;-1.22;100.00
74834;BME280;63361;52.384;20.930;2023-11-21T10:51:29;100450.19;;;-1.18;100.00
74834;BME280;63361;52.384;20.930;2023-11-21T10:53:54;100460.97;;;-1.20;100.00
74834;BME280;63361;52.384;20.930;2023-11-21T10:56:23;100431.66;;;-1.31;100.00
74834;BME280;63361;52.384;20.930;2023-11-21T10:58:49;100460.78;;;-1.18;100.00
74834;BME280;63361;52.384;20.930;2023-11-21T11:01:18;100452.03;;;-1.19;100.00
74834;BME280;63361;52.384;20.930;2023-11-21T11:03:47;100462.44;;;-1.11;100.00
74834;BME280;63361;52.384;20.930;2023-11-21T11:06:13;100471.59;;;-1.00;100.00
74834;BME280;63361;52.384;20.930;2023-11-21T11:08:39;100455.06;;;-1.28;100.00
74834;BME280;63361;52.384;20.930;2023-11-21T11:11:07;100455.28;;;-1.30;100.00
74834;BME280;63361;52.384;20.930;2023-11-21T11:13:34;100459.34;;;-1.27;100.00
74834;BME280;63361;52.384;20.930;2023-11-21T11:16:01;100472.81;;;-1.22;100.00
74834;BME280;63361;52.384;20.930;2023-11-21T11:18:28;100464.03;;;-1.29;100.00
74834;BME280;63361;52.384;20.930;2023-11-21T11:21:23;100470.59;;;-1.12;100.00
74834;BME280;63361;52.384;20.930;2023-11-21T11:24:02;100474.66;;;-1.10;100.00
74834;BME280;63361;52.384;20.930;2023-11-21T11:29:17;100463.81;;;-1.21;100.00
74834;BME280;63361;52.384;20.930;2023-11-21T11:34:32;100481.16;;;-1.06;100.00
74834;BME280;63361;52.384;20.930;2023-11-21T11:37:03;100472.41;;;-1.06;100.00
74834;BME280;63361;52.384;20.930;2023-11-21T11:41:57;100467.13;;;-0.73;100.00
74834;BME280;63361;52.384;20.930;2023-11-21T11:47:16;100476.09;;;-0.87;100.00
74834;BME280;63361;52.384;20.930;2023-11-21T11:52:45;100479.16;;;-0.90;100.00
74834;BME280;63361;52.384;20.930;2023-11-21T11:55:12;100476.50;;;-0.90;100.00
74834;BME280;63361;52.384;20.930;2023-11-21T11:58:04;100482.00;;;-1.05;100.00
74834;BME280;63361;52.384;20.930;2023-11-21T12:00:34;100462.66;;;-0.99;100.00
74834;BME280;63361;52.384;20.930;2023-11-21T12:03:03;100461.81;;;-0.99;100.00
74834;BME280;63361;52.384;20.930;2023-11-21T12:05:30;100473.84;;;-1.03;100.00
74834;BME280;63361;52.384;20.930;2023-11-21T12:08:00;100457.16;;;-1.11;100.00
74834;BME280;63361;52.384;20.930;2023-11-21T12:10:27;100483.25;;;-0.94;100.00
74834;BME280;63361;52.384;20.930;2023-11-21T12:13:05;100481.59;;;-1.02;100.00
74834;BME280;63361;52.384;20.930;2023-11-21T12:15:35;100500.31;;;-1.17;100.00
74834;BME280;63361;52.384;20.930;2023-11-21T12:18:02;100499.50;;;-1.24;100.00
74834;BME280;63361;52.384;20.930;2023-11-21T12:20:28;100491.09;;;-1.34;100.00
74834;BME280;63361;52.384;20.930;2023-11-21T12:22:56;100502.13;;;-1.17;100.00
74834;BME280;63361;52.384;20.930;2023-11-21T12:25:25;100492.16;;;-1.28;100.00
74834;BME280;63361;52.384;20.930;2023-11-21T12:27:55;100474.84;;;-1.24;100.00
74834;BME280;63361;52.384;20.930;2023-11-21T12:30:25;100495.84;;;-1.10;100.00
74834;BME280;63361;52.384;20.930;2023-11-21T12:32:54;100504.78;;;-1.17;100.00
74834;BME280;63361;52.384;20.930;2023-11-21T12:35:23;100493.97;;;-1.29;100.00
74834;BME280;63361;52.384;20.930;2023-11-21T12:37:51;100508.53;;;-0.92;100.00
74834;BME280;63361;52.384;20.930;2023-11-21T12:40:17;100501.78;;;-0.94;100.00
74834;BME280;63361;52.384;20.930;2023-11-21T12:42:47;100506.03;;;-1.13;100.00
74834;BME280;63361;52.384;20.930;2023-11-21T12:47:50;100503.19;;;-1.12;100.00